sensor_id;sensor_type;location;lat;lon;timestamp;P1;durP1;ratioP1;P2;durP2;ratioP2
52468;SDS011;38381;53.688;10.776;2023-07-29T00:00:22;2.30;;;1.77;;
52468;SDS011;38381;53.688;10.776;2023-07-29T00:05:23;3.28;;;2.25;;
52468;SDS011;38381;53.688;10.776;2023-07-29T00:10:23;2.30;;;1.90;;
52468;SDS011;38381;53.688;10.776;2023-07-29T00:15:24;2.95;;;2.10;;
52468;SDS011;38381;53.688;10.776;2023-07-29T00:20:24;4.40;;;2.50;;
52468;SDS011;38381;53.688;10.776;2023-07-29T00:25:25;3.35;;;2.45;;
52468;SDS011;38381;53.688;10.776;2023-07-29T00:30:25;2.47;;;2.03;;
52468;SDS011;38381;53.688;10.776;2023-07-29T00:35:26;2.42;;;1.98;;
52468;SDS011;38381;53.688;10.776;2023-07-29T00:40:27;2.47;;;2.10;;
52468;SDS011;38381;53.688;10.776;2023-07-29T00:45:30;3.33;;;2.47;;
52468;SDS011;38381;53.688;10.776;2023-07-29T00:50:32;2.88;;;2.25;;
52468;SDS011;38381;53.688;10.776;2023-07-29T00:55:32;2.95;;;2.40;;
52468;SDS011;38381;53.688;10.776;2023-07-29T01:00:33;3.80;;;2.47;;
52468;SDS011;38381;53.688;10.776;2023-07-29T01:05:36;3.47;;;2.40;;
52468;SDS011;38381;53.688;10.776;2023-07-29T01:10:57;2.67;;;1.85;;
52468;SDS011;38381;53.688;10.776;2023-07-29T01:16:08;2.28;;;2.00;;
52468;SDS011;38381;53.688;10.776;2023-07-29T01:21:17;3.28;;;2.47;;
52468;SDS011;38381;53.688;10.776;2023-07-29T01:26:19;2.53;;;2.20;;
52468;SDS011;38381;53.688;10.776;2023-07-29T01:36:27;3.80;;;2.08;;
52468;SDS011;38381;53.688;10.776;2023-07-29T01:41:29;4.82;;;2.40;;
52468;SDS011;38381;53.688;10.776;2023-07-29T01:46:33;2.95;;;2.65;;
52468;SDS011;38381;53.688;10.776;2023-07-29T01:51:34;3.40;;;2.35;;
52468;SDS011;38381;53.688;10.776;2023-07-29T01:56:34;2.92;;;2.63;;
52468;SDS011;38381;53.688;10.776;2023-07-29T02:01:34;3.13;;;2.40;;
52468;SDS011;38381;53.688;10.776;2023-07-29T02:06:36;3.63;;;3.08;;
52468;SDS011;38381;53.688;10.776;2023-07-29T02:11:36;3.90;;;2.85;;
52468;SDS011;38381;53.688;10.776;2023-07-29T02:16:36;3.30;;;2.50;;
52468;SDS011;38381;53.688;10.776;2023-07-29T02:21:37;3.17;;;2.63;;
52468;SDS011;38381;53.688;10.776;2023-07-29T02:26:38;4.33;;;3.33;;
52468;SDS011;38381;53.688;10.776;2023-07-29T02:31:38;3.77;;;3.17;;
52468;SDS011;38381;53.688;10.776;2023-07-29T02:36:38;4.63;;;4.13;;
52468;SDS011;38381;53.688;10.776;2023-07-29T02:41:39;6.93;;;4.03;;
52468;SDS011;38381;53.688;10.776;2023-07-29T02:46:40;7.97;;;4.20;;
52468;SDS011;38381;53.688;10.776;2023-07-29T02:51:40;6.07;;;3.30;;
52468;SDS011;38381;53.688;10.776;2023-07-29T02:56:41;5.10;;;3.30;;
52468;SDS011;38381;53.688;10.776;2023-07-29T03:01:42;4.28;;;3.88;;
52468;SDS011;38381;53.688;10.776;2023-07-29T03:06:42;4.40;;;4.00;;
52468;SDS011;38381;53.688;10.776;2023-07-29T03:11:43;5.28;;;4.30;;
52468;SDS011;38381;53.688;10.776;2023-07-29T03:16:43;4.88;;;4.38;;
52468;SDS011;38381;53.688;10.776;2023-07-29T03:21:43;4.22;;;3.72;;
52468;SDS011;38381;53.688;10.776;2023-07-29T03:26:44;4.80;;;4.32;;
52468;SDS011;38381;53.688;10.776;2023-07-29T03:31:44;6.90;;;4.73;;
52468;SDS011;38381;53.688;10.776;2023-07-29T03:36:45;5.63;;;5.00;;
52468;SDS011;38381;53.688;10.776;2023-07-29T03:41:48;4.75;;;4.13;;
52468;SDS011;38381;53.688;10.776;2023-07-29T03:46:48;6.68;;;4.82;;
52468;SDS011;38381;53.688;10.776;2023-07-29T03:51:49;5.10;;;4.28;;
52468;SDS011;38381;53.688;10.776;2023-07-29T03:56:49;5.22;;;4.70;;
52468;SDS011;38381;53.688;10.776;2023-07-29T04:01:50;6.10;;;4.80;;
52468;SDS011;38381;53.688;10.776;2023-07-29T04:06:50;4.50;;;4.10;;
52468;SDS011;38381;53.688;10.776;2023-07-29T04:11:51;5.18;;;4.68;;
52468;SDS011;38381;53.688;10.776;2023-07-29T04:16:51;5.57;;;4.50;;
52468;SDS011;38381;53.688;10.776;2023-07-29T04:21:51;5.03;;;4.53;;
52468;SDS011;38381;53.688;10.776;2023-07-29T04:26:52;6.63;;;4.63;;
52468;SDS011;38381;53.688;10.776;2023-07-29T04:31:52;5.47;;;4.97;;
52468;SDS011;38381;53.688;10.776;2023-07-29T04:36:53;5.85;;;5.15;;
52468;SDS011;38381;53.688;10.776;2023-07-29T04:41:53;7.97;;;6.28;;
52468;SDS011;38381;53.688;10.776;2023-07-29T04:46:54;6.13;;;5.53;;
52468;SDS011;38381;53.688;10.776;2023-07-29T04:51:54;5.72;;;5.13;;
52468;SDS011;38381;53.688;10.776;2023-07-29T04:56:55;7.00;;;6.18;;
52468;SDS011;38381;53.688;10.776;2023-07-29T05:01:55;7.60;;;6.90;;
52468;SDS011;38381;53.688;10.776;2023-07-29T05:06:56;8.10;;;7.30;;
52468;SDS011;38381;53.688;10.776;2023-07-29T05:11:56;8.65;;;6.63;;
52468;SDS011;38381;53.688;10.776;2023-07-29T05:16:57;8.25;;;7.47;;
52468;SDS011;38381;53.688;10.776;2023-07-29T05:21:57;8.98;;;8.07;;
52468;SDS011;38381;53.688;10.776;2023-07-29T05:26:58;9.13;;;8.25;;
52468;SDS011;38381;53.688;10.776;2023-07-29T05:31:58;10.82;;;9.73;;
52468;SDS011;38381;53.688;10.776;2023-07-29T05:36:59;10.95;;;9.93;;
52468;SDS011;38381;53.688;10.776;2023-07-29T05:41:59;12.45;;;11.25;;
52468;SDS011;38381;53.688;10.776;2023-07-29T05:47:02;12.77;;;11.43;;
52468;SDS011;38381;53.688;10.776;2023-07-29T05:52:03;12.80;;;11.43;;
52468;SDS011;38381;53.688;10.776;2023-07-29T05:57:04;13.82;;;12.43;;
52468;SDS011;38381;53.688;10.776;2023-07-29T06:02:05;12.43;;;10.70;;
52468;SDS011;38381;53.688;10.776;2023-07-29T06:07:06;13.80;;;12.13;;
52468;SDS011;38381;53.688;10.776;2023-07-29T06:12:06;13.63;;;12.23;;
52468;SDS011;38381;53.688;10.776;2023-07-29T06:17:07;12.93;;;11.68;;
52468;SDS011;38381;53.688;10.776;2023-07-29T06:22:09;12.82;;;11.45;;
52468;SDS011;38381;53.688;10.776;2023-07-29T06:27:10;13.93;;;12.63;;
52468;SDS011;38381;53.688;10.776;2023-07-29T06:32:10;12.73;;;11.32;;
52468;SDS011;38381;53.688;10.776;2023-07-29T06:37:11;12.82;;;11.52;;
52468;SDS011;38381;53.688;10.776;2023-07-29T06:42:12;13.77;;;12.48;;
52468;SDS011;38381;53.688;10.776;2023-07-29T06:47:12;14.32;;;12.30;;
52468;SDS011;38381;53.688;10.776;2023-07-29T06:52:12;14.10;;;12.63;;
52468;SDS011;38381;53.688;10.776;2023-07-29T06:57:13;13.47;;;12.17;;
52468;SDS011;38381;53.688;10.776;2023-07-29T07:02:13;12.13;;;11.03;;
52468;SDS011;38381;53.688;10.776;2023-07-29T07:07:14;14.70;;;12.23;;
52468;SDS011;38381;53.688;10.776;2023-07-29T07:12:15;13.80;;;12.50;;
52468;SDS011;38381;53.688;10.776;2023-07-29T07:17:15;14.80;;;13.33;;
52468;SDS011;38381;53.688;10.776;2023-07-29T07:22:16;14.20;;;12.80;;
52468;SDS011;38381;53.688;10.776;2023-07-29T07:27:16;15.40;;;13.93;;
52468;SDS011;38381;53.688;10.776;2023-07-29T07:32:17;15.67;;;14.27;;
52468;SDS011;38381;53.688;10.776;2023-07-29T07:37:17;14.47;;;13.13;;
52468;SDS011;38381;53.688;10.776;2023-07-29T07:42:18;13.98;;;12.57;;
52468;SDS011;38381;53.688;10.776;2023-07-29T07:47:18;15.23;;;13.63;;
52468;SDS011;38381;53.688;10.776;2023-07-29T07:52:18;12.73;;;11.47;;
52468;SDS011;38381;53.688;10.776;2023-07-29T07:57:20;12.67;;;11.40;;
52468;SDS011;38381;53.688;10.776;2023-07-29T08:02:21;11.23;;;10.13;;
52468;SDS011;38381;53.688;10.776;2023-07-29T08:07:21;11.00;;;9.95;;
52468;SDS011;38381;53.688;10.776;2023-07-29T08:12:21;9.83;;;8.93;;
52468;SDS011;38381;53.688;10.776;2023-07-29T08:17:22;9.85;;;8.82;;
52468;SDS011;38381;53.688;10.776;2023-07-29T08:22:22;10.47;;;9.57;;
52468;SDS011;38381;53.688;10.776;2023-07-29T08:27:23;9.33;;;8.43;;
52468;SDS011;38381;53.688;10.776;2023-07-29T08:32:23;9.52;;;8.57;;
52468;SDS011;38381;53.688;10.776;2023-07-29T08:37:24;9.63;;;8.33;;
52468;SDS011;38381;53.688;10.776;2023-07-29T08:42:25;8.45;;;7.65;;
52468;SDS011;38381;53.688;10.776;2023-07-29T08:47:29;7.65;;;6.80;;
52468;SDS011;38381;53.688;10.776;2023-07-29T08:52:30;9.50;;;6.90;;
52468;SDS011;38381;53.688;10.776;2023-07-29T08:57:32;6.55;;;5.97;;
52468;SDS011;38381;53.688;10.776;2023-07-29T09:02:32;6.47;;;5.93;;
52468;SDS011;38381;53.688;10.776;2023-07-29T09:07:33;7.93;;;5.10;;
52468;SDS011;38381;53.688;10.776;2023-07-29T09:12:36;5.13;;;4.63;;
52468;SDS011;38381;53.688;10.776;2023-07-29T09:17:36;5.57;;;5.00;;
52468;SDS011;38381;53.688;10.776;2023-07-29T09:22:37;5.72;;;5.10;;
52468;SDS011;38381;53.688;10.776;2023-07-29T09:27:37;4.82;;;4.32;;
52468;SDS011;38381;53.688;10.776;2023-07-29T09:37:40;7.00;;;4.90;;
52468;SDS011;38381;53.688;10.776;2023-07-29T09:42:40;5.32;;;4.82;;
52468;SDS011;38381;53.688;10.776;2023-07-29T09:47:49;4.55;;;3.95;;
52468;SDS011;38381;53.688;10.776;2023-07-29T09:52:50;5.18;;;4.68;;
52468;SDS011;38381;53.688;10.776;2023-07-29T09:57:58;5.53;;;4.50;;
52468;SDS011;38381;53.688;10.776;2023-07-29T10:03:01;5.13;;;4.63;;
52468;SDS011;38381;53.688;10.776;2023-07-29T10:08:02;5.22;;;4.72;;
52468;SDS011;38381;53.688;10.776;2023-07-29T10:13:02;4.68;;;4.25;;
52468;SDS011;38381;53.688;10.776;2023-07-29T10:18:03;4.47;;;3.85;;
52468;SDS011;38381;53.688;10.776;2023-07-29T10:23:05;4.35;;;3.83;;
52468;SDS011;38381;53.688;10.776;2023-07-29T10:28:08;4.78;;;3.85;;
52468;SDS011;38381;53.688;10.776;2023-07-29T10:33:12;4.38;;;3.53;;
52468;SDS011;38381;53.688;10.776;2023-07-29T10:38:12;3.92;;;3.63;;
52468;SDS011;38381;53.688;10.776;2023-07-29T10:43:18;4.83;;;4.33;;
52468;SDS011;38381;53.688;10.776;2023-07-29T10:53:33;5.38;;;4.13;;
52468;SDS011;38381;53.688;10.776;2023-07-29T10:58:33;3.75;;;3.45;;
52468;SDS011;38381;53.688;10.776;2023-07-29T11:03:34;7.07;;;3.53;;
52468;SDS011;38381;53.688;10.776;2023-07-29T11:08:34;3.92;;;3.60;;
52468;SDS011;38381;53.688;10.776;2023-07-29T11:13:35;3.90;;;3.47;;
52468;SDS011;38381;53.688;10.776;2023-07-29T11:23:37;5.47;;;3.67;;
52468;SDS011;38381;53.688;10.776;2023-07-29T11:28:38;3.60;;;3.28;;
52468;SDS011;38381;53.688;10.776;2023-07-29T11:33:40;4.03;;;3.63;;
52468;SDS011;38381;53.688;10.776;2023-07-29T11:38:40;3.90;;;3.55;;
52468;SDS011;38381;53.688;10.776;2023-07-29T11:43:41;4.28;;;3.88;;
52468;SDS011;38381;53.688;10.776;2023-07-29T11:48:41;4.78;;;3.88;;
52468;SDS011;38381;53.688;10.776;2023-07-29T11:53:44;3.67;;;3.38;;
52468;SDS011;38381;53.688;10.776;2023-07-29T11:58:45;4.03;;;3.47;;
52468;SDS011;38381;53.688;10.776;2023-07-29T12:03:45;3.40;;;3.10;;
52468;SDS011;38381;53.688;10.776;2023-07-29T12:08:46;4.80;;;3.57;;
52468;SDS011;38381;53.688;10.776;2023-07-29T12:13:47;3.92;;;3.63;;
52468;SDS011;38381;53.688;10.776;2023-07-29T12:18:49;3.90;;;3.60;;
52468;SDS011;38381;53.688;10.776;2023-07-29T12:23:50;3.80;;;3.40;;
52468;SDS011;38381;53.688;10.776;2023-07-29T12:28:51;3.50;;;3.10;;
52468;SDS011;38381;53.688;10.776;2023-07-29T12:33:55;4.22;;;2.60;;
52468;SDS011;38381;53.688;10.776;2023-07-29T12:38:59;2.80;;;2.40;;
52468;SDS011;38381;53.688;10.776;2023-07-29T12:43:59;4.13;;;2.38;;
52468;SDS011;38381;53.688;10.776;2023-07-29T12:49:00;2.63;;;2.13;;
52468;SDS011;38381;53.688;10.776;2023-07-29T12:54:00;2.60;;;2.40;;
52468;SDS011;38381;53.688;10.776;2023-07-29T12:59:01;3.23;;;2.67;;
52468;SDS011;38381;53.688;10.776;2023-07-29T13:09:03;2.63;;;2.30;;
52468;SDS011;38381;53.688;10.776;2023-07-29T13:14:05;3.55;;;2.08;;
52468;SDS011;38381;53.688;10.776;2023-07-29T13:19:05;5.13;;;2.57;;
52468;SDS011;38381;53.688;10.776;2023-07-29T13:24:06;3.07;;;2.73;;
52468;SDS011;38381;53.688;10.776;2023-07-29T13:29:06;4.37;;;2.67;;
52468;SDS011;38381;53.688;10.776;2023-07-29T13:34:07;3.90;;;2.97;;
52468;SDS011;38381;53.688;10.776;2023-07-29T13:39:08;3.83;;;2.20;;
52468;SDS011;38381;53.688;10.776;2023-07-29T13:44:08;3.40;;;2.67;;
52468;SDS011;38381;53.688;10.776;2023-07-29T13:49:09;3.83;;;2.60;;
52468;SDS011;38381;53.688;10.776;2023-07-29T13:54:09;2.23;;;1.93;;
52468;SDS011;38381;53.688;10.776;2023-07-29T13:59:09;2.97;;;2.40;;
52468;SDS011;38381;53.688;10.776;2023-07-29T14:04:10;3.03;;;2.37;;
52468;SDS011;38381;53.688;10.776;2023-07-29T14:09:10;3.80;;;2.23;;
52468;SDS011;38381;53.688;10.776;2023-07-29T14:14:11;2.00;;;1.80;;
52468;SDS011;38381;53.688;10.776;2023-07-29T14:19:11;2.40;;;2.10;;
52468;SDS011;38381;53.688;10.776;2023-07-29T14:24:11;2.43;;;1.90;;
52468;SDS011;38381;53.688;10.776;2023-07-29T14:29:12;2.30;;;1.77;;
52468;SDS011;38381;53.688;10.776;2023-07-29T14:34:12;3.87;;;1.70;;
52468;SDS011;38381;53.688;10.776;2023-07-29T14:39:13;3.10;;;2.07;;
52468;SDS011;38381;53.688;10.776;2023-07-29T14:44:13;2.57;;;1.90;;
52468;SDS011;38381;53.688;10.776;2023-07-29T14:49:14;1.73;;;1.43;;
52468;SDS011;38381;53.688;10.776;2023-07-29T14:54:14;2.80;;;2.07;;
52468;SDS011;38381;53.688;10.776;2023-07-29T14:59:15;4.73;;;1.70;;
52468;SDS011;38381;53.688;10.776;2023-07-29T15:04:15;1.50;;;1.40;;
52468;SDS011;38381;53.688;10.776;2023-07-29T15:09:17;3.43;;;1.57;;
52468;SDS011;38381;53.688;10.776;2023-07-29T15:14:17;2.53;;;1.77;;
52468;SDS011;38381;53.688;10.776;2023-07-29T15:19:18;2.27;;;1.77;;
52468;SDS011;38381;53.688;10.776;2023-07-29T15:24:18;1.87;;;1.30;;
52468;SDS011;38381;53.688;10.776;2023-07-29T15:29:19;2.40;;;1.70;;
52468;SDS011;38381;53.688;10.776;2023-07-29T15:34:19;1.97;;;1.50;;
52468;SDS011;38381;53.688;10.776;2023-07-29T15:39:20;3.20;;;1.90;;
52468;SDS011;38381;53.688;10.776;2023-07-29T15:44:20;6.00;;;5.50;;
52468;SDS011;38381;53.688;10.776;2023-07-29T15:49:20;2.70;;;2.37;;
52468;SDS011;38381;53.688;10.776;2023-07-29T15:54:21;6.27;;;2.03;;
52468;SDS011;38381;53.688;10.776;2023-07-29T15:59:21;1.77;;;1.57;;
52468;SDS011;38381;53.688;10.776;2023-07-29T16:04:23;2.30;;;1.55;;
52468;SDS011;38381;53.688;10.776;2023-07-29T16:09:24;2.47;;;1.77;;
52468;SDS011;38381;53.688;10.776;2023-07-29T16:14:24;2.73;;;1.80;;
52468;SDS011;38381;53.688;10.776;2023-07-29T16:19:25;2.53;;;1.70;;
52468;SDS011;38381;53.688;10.776;2023-07-29T16:24:27;1.70;;;1.50;;
52468;SDS011;38381;53.688;10.776;2023-07-29T16:29:28;2.00;;;1.70;;
52468;SDS011;38381;53.688;10.776;2023-07-29T16:34:28;1.83;;;1.57;;
52468;SDS011;38381;53.688;10.776;2023-07-29T16:39:29;2.07;;;1.50;;
52468;SDS011;38381;53.688;10.776;2023-07-29T16:44:29;2.50;;;1.77;;
52468;SDS011;38381;53.688;10.776;2023-07-29T16:49:30;2.73;;;2.03;;
52468;SDS011;38381;53.688;10.776;2023-07-29T16:54:30;2.10;;;1.50;;
52468;SDS011;38381;53.688;10.776;2023-07-29T16:59:30;2.57;;;1.97;;
52468;SDS011;38381;53.688;10.776;2023-07-29T17:04:31;2.27;;;1.70;;
52468;SDS011;38381;53.688;10.776;2023-07-29T17:09:32;1.75;;;1.60;;
52468;SDS011;38381;53.688;10.776;2023-07-29T17:14:33;3.57;;;1.60;;
52468;SDS011;38381;53.688;10.776;2023-07-29T17:19:33;1.63;;;1.50;;
52468;SDS011;38381;53.688;10.776;2023-07-29T17:24:33;2.20;;;1.60;;
52468;SDS011;38381;53.688;10.776;2023-07-29T17:29:34;2.13;;;1.80;;
52468;SDS011;38381;53.688;10.776;2023-07-29T17:34:34;1.52;;;1.38;;
52468;SDS011;38381;53.688;10.776;2023-07-29T17:39:35;3.13;;;1.60;;
52468;SDS011;38381;53.688;10.776;2023-07-29T17:44:37;1.83;;;1.50;;
52468;SDS011;38381;53.688;10.776;2023-07-29T17:49:38;2.55;;;2.15;;
52468;SDS011;38381;53.688;10.776;2023-07-29T17:54:40;4.47;;;1.98;;
52468;SDS011;38381;53.688;10.776;2023-07-29T17:59:41;2.77;;;1.80;;
52468;SDS011;38381;53.688;10.776;2023-07-29T18:04:41;3.40;;;1.77;;
52468;SDS011;38381;53.688;10.776;2023-07-29T18:09:42;2.05;;;1.60;;
52468;SDS011;38381;53.688;10.776;2023-07-29T18:14:43;2.25;;;1.67;;
52468;SDS011;38381;53.688;10.776;2023-07-29T18:19:44;2.20;;;1.73;;
52468;SDS011;38381;53.688;10.776;2023-07-29T18:24:45;1.95;;;1.30;;
52468;SDS011;38381;53.688;10.776;2023-07-29T18:29:46;2.63;;;1.50;;
52468;SDS011;38381;53.688;10.776;2023-07-29T18:34:46;2.10;;;1.90;;
52468;SDS011;38381;53.688;10.776;2023-07-29T18:39:47;2.28;;;1.73;;
52468;SDS011;38381;53.688;10.776;2023-07-29T18:44:47;2.50;;;1.88;;
52468;SDS011;38381;53.688;10.776;2023-07-29T18:49:48;3.93;;;1.90;;
52468;SDS011;38381;53.688;10.776;2023-07-29T18:54:48;4.47;;;2.15;;
52468;SDS011;38381;53.688;10.776;2023-07-29T18:59:49;2.75;;;2.30;;
52468;SDS011;38381;53.688;10.776;2023-07-29T19:04:50;3.42;;;2.00;;
52468;SDS011;38381;53.688;10.776;2023-07-29T19:09:51;3.40;;;2.22;;
52468;SDS011;38381;53.688;10.776;2023-07-29T19:14:57;2.78;;;1.85;;
52468;SDS011;38381;53.688;10.776;2023-07-29T19:19:58;2.75;;;1.98;;
52468;SDS011;38381;53.688;10.776;2023-07-29T19:24:58;2.50;;;1.90;;
52468;SDS011;38381;53.688;10.776;2023-07-29T19:29:59;2.53;;;1.98;;
52468;SDS011;38381;53.688;10.776;2023-07-29T19:34:59;2.83;;;2.53;;
52468;SDS011;38381;53.688;10.776;2023-07-29T19:40:00;2.58;;;1.92;;
52468;SDS011;38381;53.688;10.776;2023-07-29T19:45:00;7.45;;;2.40;;
52468;SDS011;38381;53.688;10.776;2023-07-29T19:50:01;2.53;;;1.73;;
52468;SDS011;38381;53.688;10.776;2023-07-29T19:55:01;2.72;;;1.90;;
52468;SDS011;38381;53.688;10.776;2023-07-29T20:00:02;1.88;;;1.52;;
52468;SDS011;38381;53.688;10.776;2023-07-29T20:05:03;2.90;;;1.90;;
52468;SDS011;38381;53.688;10.776;2023-07-29T20:10:04;5.57;;;1.90;;
52468;SDS011;38381;53.688;10.776;2023-07-29T20:15:06;5.57;;;2.00;;
52468;SDS011;38381;53.688;10.776;2023-07-29T20:20:06;4.05;;;2.28;;
52468;SDS011;38381;53.688;10.776;2023-07-29T20:25:08;4.30;;;2.10;;
52468;SDS011;38381;53.688;10.776;2023-07-29T20:30:08;10.07;;;2.15;;
52468;SDS011;38381;53.688;10.776;2023-07-29T20:35:09;3.42;;;2.25;;
52468;SDS011;38381;53.688;10.776;2023-07-29T20:40:10;4.80;;;2.60;;
52468;SDS011;38381;53.688;10.776;2023-07-29T20:45:10;7.20;;;2.58;;
52468;SDS011;38381;53.688;10.776;2023-07-29T20:50:11;2.85;;;2.10;;
52468;SDS011;38381;53.688;10.776;2023-07-29T20:55:12;2.78;;;2.00;;
52468;SDS011;38381;53.688;10.776;2023-07-29T21:00:12;2.63;;;2.35;;
52468;SDS011;38381;53.688;10.776;2023-07-29T21:05:13;4.05;;;2.22;;
52468;SDS011;38381;53.688;10.776;2023-07-29T21:10:13;6.57;;;2.60;;
52468;SDS011;38381;53.688;10.776;2023-07-29T21:15:14;3.10;;;2.35;;
52468;SDS011;38381;53.688;10.776;2023-07-29T21:20:14;3.47;;;2.60;;
52468;SDS011;38381;53.688;10.776;2023-07-29T21:25:15;2.38;;;1.95;;
52468;SDS011;38381;53.688;10.776;2023-07-29T21:30:15;5.47;;;2.35;;
52468;SDS011;38381;53.688;10.776;2023-07-29T21:35:16;2.90;;;2.60;;
52468;SDS011;38381;53.688;10.776;2023-07-29T21:40:16;5.43;;;3.00;;
52468;SDS011;38381;53.688;10.776;2023-07-29T21:45:16;3.85;;;3.03;;
52468;SDS011;38381;53.688;10.776;2023-07-29T21:50:17;4.57;;;3.08;;
52468;SDS011;38381;53.688;10.776;2023-07-29T21:55:20;22.67;;;18.25;;
52468;SDS011;38381;53.688;10.776;2023-07-29T22:00:21;5.00;;;3.55;;
52468;SDS011;38381;53.688;10.776;2023-07-29T22:05:21;4.40;;;4.00;;
52468;SDS011;38381;53.688;10.776;2023-07-29T22:10:22;5.57;;;4.53;;
52468;SDS011;38381;53.688;10.776;2023-07-29T22:15:22;5.20;;;4.72;;
52468;SDS011;38381;53.688;10.776;2023-07-29T22:20:22;5.50;;;4.37;;
52468;SDS011;38381;53.688;10.776;2023-07-29T22:25:23;10.30;;;5.78;;
52468;SDS011;38381;53.688;10.776;2023-07-29T22:30:23;8.25;;;5.55;;
52468;SDS011;38381;53.688;10.776;2023-07-29T22:35:24;7.27;;;4.97;;
52468;SDS011;38381;53.688;10.776;2023-07-29T22:40:24;8.60;;;6.65;;
52468;SDS011;38381;53.688;10.776;2023-07-29T22:45:25;8.05;;;6.22;;
52468;SDS011;38381;53.688;10.776;2023-07-29T22:50:25;6.87;;;5.83;;
52468;SDS011;38381;53.688;10.776;2023-07-29T22:55:25;7.40;;;5.77;;
52468;SDS011;38381;53.688;10.776;2023-07-29T23:00:26;6.13;;;5.60;;
52468;SDS011;38381;53.688;10.776;2023-07-29T23:05:26;9.10;;;5.78;;
52468;SDS011;38381;53.688;10.776;2023-07-29T23:10:27;8.65;;;7.65;;
52468;SDS011;38381;53.688;10.776;2023-07-29T23:15:28;8.77;;;6.38;;
52468;SDS011;38381;53.688;10.776;2023-07-29T23:20:33;7.45;;;5.50;;
52468;SDS011;38381;53.688;10.776;2023-07-29T23:25:34;7.10;;;5.85;;
52468;SDS011;38381;53.688;10.776;2023-07-29T23:30:35;13.00;;;7.30;;
52468;SDS011;38381;53.688;10.776;2023-07-29T23:35:36;25.33;;;7.78;;
52468;SDS011;38381;53.688;10.776;2023-07-29T23:40:37;14.93;;;7.53;;
52468;SDS011;38381;53.688;10.776;2023-07-29T23:45:37;21.73;;;8.27;;
52468;SDS011;38381;53.688;10.776;2023-07-29T23:50:38;46.22;;;9.05;;
52468;SDS011;38381;53.688;10.776;2023-07-29T23:55:38;49.22;;;15.13;;
